Terminal Aerodrome Forecast
Issued by NWS

Home | Current Version | Previous Version | Text Only | Print | Product List | Glossary On
Versions: 1 2 3 4 5 6 7 8 9 10 11 12 13 14
000
FTUS43 KABR 312300
TAFMBG
TAF
KMBG 312328Z 0100/0124 35007KT P6SM SCT250
     FM010200 VRB05KT P6SM BKN250
     FM011700 13011KT P6SM SCT200=

USA.gov is the U.S. government's official web portal to all federal, state and local government web resources and services.